createdAt,value
2018-04-24T00:02:00.414Z,10.53
2018-04-24T00:04:27.918Z,8.43
2018-04-24T00:06:55.406Z,8.40
2018-04-24T00:09:23.722Z,8.13
2018-04-24T00:11:51.219Z,7.07
2018-04-24T00:14:18.748Z,11.73
2018-04-24T00:16:46.273Z,7.47
2018-04-24T00:19:13.830Z,9.17
2018-04-24T00:21:41.302Z,7.23
2018-04-24T00:24:08.911Z,7.37
2018-04-24T00:26:37.291Z,6.70
2018-04-24T00:29:05.665Z,8.10
2018-04-24T00:31:33.918Z,8.73
2018-04-24T00:34:01.401Z,6.00
2018-04-24T00:36:29.705Z,5.03
2018-04-24T00:38:57.208Z,6.07
2018-04-24T00:41:24.742Z,5.23
2018-04-24T00:43:52.380Z,5.90
2018-04-24T00:46:19.879Z,4.90
2018-04-24T00:48:47.348Z,5.00
2018-04-24T00:51:15.599Z,6.07
2018-04-24T00:53:43.166Z,6.23
2018-04-24T00:56:11.478Z,8.57
2018-04-24T00:58:39.793Z,4.60
2018-04-24T01:01:07.273Z,5.40
2018-04-24T01:03:34.835Z,5.80
2018-04-24T01:06:03.179Z,5.13
2018-04-24T01:08:30.677Z,8.70
2018-04-24T01:10:58.164Z,11.63
2018-04-24T01:13:25.881Z,6.03
2018-04-24T01:15:53.343Z,5.73
2018-04-24T01:18:20.884Z,3.47
2018-04-24T01:20:48.421Z,8.17
2018-04-24T01:23:20.050Z,11.17
2018-04-24T01:25:47.536Z,3.53
2018-04-24T01:28:14.989Z,8.20
2018-04-24T01:30:42.636Z,4.87
2018-04-24T01:33:10.116Z,6.20
2018-04-24T01:35:37.755Z,7.13
2018-04-24T01:38:05.317Z,9.43
2018-04-24T01:40:32.842Z,6.03
2018-04-24T01:43:01.147Z,6.10
2018-04-24T01:45:28.656Z,4.83
2018-04-24T01:47:56.117Z,4.40
2018-04-24T01:50:24.371Z,3.97
2018-04-24T01:52:51.864Z,6.30
2018-04-24T01:55:20.135Z,7.87
2018-04-24T01:57:48.462Z,6.30
2018-04-24T02:00:15.938Z,5.50
2018-04-24T02:02:44.192Z,5.07
2018-04-24T02:05:13.303Z,6.50
2018-04-24T02:07:40.769Z,8.07
2018-04-24T02:10:09.078Z,4.30
2018-04-24T02:12:36.651Z,4.57
2018-04-24T02:15:04.221Z,8.87
2018-04-24T02:17:31.673Z,4.13
2018-04-24T02:19:59.326Z,6.00
2018-04-24T02:22:26.871Z,6.90
2018-04-24T02:24:54.613Z,8.43
2018-04-24T02:27:22.015Z,5.33
2018-04-24T02:29:49.520Z,11.90
2018-04-24T02:32:17.134Z,10.37
2018-04-24T02:34:44.714Z,5.70
2018-04-24T02:37:12.318Z,5.77
2018-04-24T02:39:40.575Z,8.30
2018-04-24T02:42:08.933Z,5.87
2018-04-24T02:44:36.643Z,4.93
2018-04-24T02:47:04.175Z,8.10
2018-04-24T02:49:31.627Z,5.90
2018-04-24T02:51:59.875Z,9.13
2018-04-24T02:54:27.366Z,6.63
2018-04-24T02:56:55.659Z,6.97
2018-04-24T02:59:23.144Z,7.90
2018-04-24T03:01:50.783Z,5.57
2018-04-24T03:04:18.238Z,8.00
2018-04-24T03:06:46.101Z,7.80
2018-04-24T03:09:13.686Z,7.20
2018-04-24T03:11:41.418Z,6.03
2018-04-24T03:14:08.941Z,8.23
2018-04-24T03:16:36.548Z,8.63
2018-04-24T03:19:04.022Z,6.90
2018-04-24T03:21:31.566Z,11.63
2018-04-24T03:23:59.125Z,13.53
2018-04-24T03:26:26.730Z,7.67
2018-04-24T03:28:54.271Z,5.77
2018-04-24T03:31:21.757Z,9.77
2018-04-24T03:33:50.161Z,12.23
2018-04-24T03:36:17.703Z,7.33
2018-04-24T03:38:45.988Z,7.10
2018-04-24T03:41:13.515Z,9.40
2018-04-24T03:43:40.991Z,6.67
2018-04-24T03:46:08.481Z,8.57
2018-04-24T03:48:35.989Z,9.10
2018-04-24T03:51:04.247Z,13.17
2018-04-24T03:53:31.737Z,8.60
2018-04-24T03:55:59.236Z,8.30
2018-04-24T03:58:26.710Z,8.10
2018-04-24T04:00:54.194Z,8.30
2018-04-24T04:03:22.480Z,10.80
2018-04-24T04:05:50.005Z,7.43
2018-04-24T04:08:17.532Z,11.10
2018-04-24T04:10:45.009Z,8.43
2018-04-24T04:13:14.019Z,11.23
2018-04-24T04:15:42.277Z,6.73
2018-04-24T04:18:21.490Z,9.43
2018-04-24T04:21:00.927Z,10.80
2018-04-24T04:23:40.445Z,7.67
2018-04-24T04:26:07.924Z,7.27
2018-04-24T04:28:35.409Z,5.73
2018-04-24T04:31:02.866Z,7.47
2018-04-24T04:33:30.361Z,7.17
2018-04-24T04:35:57.842Z,6.53
2018-04-24T04:38:25.325Z,9.93
2018-04-24T04:40:52.844Z,5.60
2018-04-24T04:43:20.321Z,5.70
2018-04-24T04:45:47.795Z,7.20
2018-04-24T04:48:15.262Z,8.70
2018-04-24T04:50:43.521Z,7.53
2018-04-24T04:53:11.094Z,5.80
2018-04-24T04:55:39.361Z,5.40
2018-04-24T04:58:06.836Z,6.90
2018-04-24T05:00:35.139Z,7.20
2018-04-24T05:03:02.734Z,6.00
2018-04-24T05:05:30.197Z,7.30
2018-04-24T05:07:57.696Z,7.33
2018-04-24T05:10:25.168Z,6.07
2018-04-24T05:12:52.760Z,6.03
2018-04-24T05:15:20.220Z,6.27
2018-04-24T05:17:47.733Z,4.97
2018-04-24T05:20:15.278Z,7.60
2018-04-24T05:22:42.797Z,5.73
2018-04-24T05:25:10.418Z,5.47
2018-04-24T05:27:38.061Z,7.90
2018-04-24T05:30:05.536Z,8.87
2018-04-24T05:32:33.146Z,10.40
2018-04-24T05:35:00.804Z,4.53
2018-04-24T05:37:28.294Z,6.40
2018-04-24T05:39:55.800Z,4.10
2018-04-24T05:42:23.265Z,7.43
2018-04-24T05:44:50.812Z,5.40
2018-04-24T05:47:18.370Z,15.03
2018-04-24T05:49:45.927Z,5.53
2018-04-24T05:52:13.442Z,5.37
2018-04-24T05:54:40.948Z,7.27
2018-04-24T05:57:09.979Z,5.77
2018-04-24T05:59:37.652Z,4.53
2018-04-24T06:02:05.143Z,6.20
2018-04-24T06:04:32.629Z,5.80
2018-04-24T06:07:00.110Z,4.77
2018-04-24T06:09:27.583Z,3.97
2018-04-24T06:11:55.125Z,9.27
2018-04-24T06:14:22.646Z,5.43
2018-04-24T06:16:50.131Z,6.60
2018-04-24T06:19:17.618Z,7.57
2018-04-24T06:21:45.119Z,5.30
2018-04-24T06:24:12.640Z,7.10
2018-04-24T06:26:40.103Z,4.17
2018-04-24T06:29:07.569Z,7.00
2018-04-24T06:31:36.660Z,5.80
2018-04-24T06:34:04.071Z,6.47
2018-04-24T06:36:31.540Z,6.63
2018-04-24T06:38:59.001Z,7.23
2018-04-24T06:41:26.492Z,4.17
2018-04-24T06:43:53.958Z,5.43
2018-04-24T06:46:21.461Z,4.07
2018-04-24T06:48:48.970Z,5.03
2018-04-24T06:51:16.478Z,3.43
2018-04-24T06:53:43.966Z,11.30
2018-04-24T06:56:11.443Z,7.07
2018-04-24T06:58:39.706Z,4.60
2018-04-24T07:01:07.230Z,7.13
2018-04-24T07:03:34.719Z,10.43
2018-04-24T07:06:02.212Z,7.27
2018-04-24T07:08:29.719Z,7.50
2018-04-24T07:10:57.211Z,8.27
2018-04-24T07:13:24.819Z,4.60
2018-04-24T07:15:52.274Z,6.07
2018-04-24T07:18:19.779Z,4.77
2018-04-24T07:20:48.011Z,6.53
2018-04-24T07:23:15.490Z,8.03
2018-04-24T07:25:42.958Z,9.47
2018-04-24T07:28:10.448Z,7.03
2018-04-24T07:30:37.932Z,6.77
2018-04-24T07:33:05.441Z,6.83
2018-04-24T07:35:33.689Z,8.77
2018-04-24T07:38:01.190Z,5.10
2018-04-24T07:40:28.671Z,7.20
2018-04-24T07:42:56.219Z,9.03
2018-04-24T07:45:23.744Z,8.40
2018-04-24T07:47:52.094Z,6.10
2018-04-24T07:50:19.590Z,8.93
2018-04-24T07:52:47.069Z,5.87
2018-04-24T07:55:14.670Z,6.63
2018-04-24T07:57:43.648Z,7.13
2018-04-24T08:00:11.265Z,5.93
2018-04-24T08:02:38.846Z,7.83
2018-04-24T08:05:06.337Z,8.40
2018-04-24T08:07:34.594Z,7.77
2018-04-24T08:10:03.399Z,5.87
2018-04-24T08:12:31.197Z,3.90
2018-04-24T08:14:58.758Z,6.97
2018-04-24T08:17:26.418Z,7.00
2018-04-24T08:19:53.929Z,7.97
2018-04-24T08:22:21.444Z,7.80
2018-04-24T08:24:48.917Z,7.43
2018-04-24T08:27:16.425Z,7.33
2018-04-24T08:29:44.080Z,6.93
2018-04-24T08:32:12.329Z,7.97
2018-04-24T08:34:39.801Z,8.63
2018-04-24T08:37:07.304Z,8.03
2018-04-24T08:39:34.780Z,6.73
2018-04-24T08:42:02.248Z,7.23
2018-04-24T08:44:29.714Z,9.43
2018-04-24T08:46:57.213Z,8.30
2018-04-24T08:49:24.703Z,10.20
2018-04-24T08:51:52.177Z,9.23
2018-04-24T08:54:19.682Z,9.63
2018-04-24T08:56:47.912Z,8.27
2018-04-24T08:59:15.410Z,9.03
2018-04-24T09:01:42.894Z,8.47
2018-04-24T09:04:10.474Z,6.00
2018-04-24T09:06:37.946Z,8.60
2018-04-24T09:09:06.364Z,12.43
2018-04-24T09:11:33.900Z,8.93
2018-04-24T09:14:02.280Z,10.10
2018-04-24T09:16:29.709Z,7.73
2018-04-24T09:18:57.958Z,11.77
2018-04-24T09:21:25.676Z,8.63
2018-04-24T09:23:53.943Z,11.67
2018-04-24T09:26:22.278Z,10.90
2018-04-24T09:28:49.864Z,12.43
2018-04-24T09:31:17.528Z,10.37
2018-04-24T09:33:45.083Z,12.33
2018-04-24T09:36:12.619Z,11.87
2018-04-24T09:38:40.259Z,8.57
2018-04-24T09:41:07.792Z,9.83
2018-04-24T09:43:35.420Z,10.73
2018-04-24T09:46:03.693Z,10.97
2018-04-24T09:48:31.150Z,10.13
2018-04-24T09:50:58.779Z,12.10
2018-04-24T09:53:27.079Z,9.87
2018-04-24T09:55:54.763Z,11.03
2018-04-24T09:58:22.633Z,10.33
2018-04-24T10:00:50.164Z,9.47
2018-04-24T10:03:17.667Z,12.97
2018-04-24T10:05:45.168Z,10.57
2018-04-24T10:08:12.643Z,11.13
2018-04-24T10:10:40.861Z,9.07
2018-04-24T10:13:08.485Z,8.87
2018-04-24T10:15:35.894Z,11.10
2018-04-24T10:18:03.385Z,7.93
2018-04-24T10:20:31.640Z,12.37
2018-04-24T10:22:59.191Z,9.30
2018-04-24T10:25:26.770Z,9.00
2018-04-24T10:27:54.361Z,13.33
2018-04-24T10:30:21.931Z,7.83
2018-04-24T10:32:49.822Z,12.60
2018-04-24T10:35:17.308Z,6.80
2018-04-24T10:37:44.841Z,11.10
2018-04-24T10:40:12.329Z,10.50
2018-04-24T10:42:40.606Z,9.50
2018-04-24T10:45:08.888Z,13.23
2018-04-24T10:47:37.145Z,9.07
2018-04-24T10:50:04.769Z,10.23
2018-04-24T10:52:32.262Z,13.43
2018-04-24T10:54:59.864Z,11.47
2018-04-24T10:57:27.587Z,9.53
2018-04-24T10:59:55.096Z,9.40
2018-04-24T11:02:22.742Z,7.93
2018-04-24T11:04:50.298Z,8.33
2018-04-24T11:07:17.964Z,8.07
2018-04-24T11:09:45.563Z,10.90
2018-04-24T11:12:13.387Z,12.63
2018-04-24T11:14:40.995Z,11.13
2018-04-24T11:17:09.340Z,11.13
2018-04-24T11:19:37.046Z,12.73
2018-04-24T11:22:05.708Z,10.57
2018-04-24T11:24:33.318Z,9.93
2018-04-24T11:27:00.890Z,10.00
2018-04-24T11:29:28.458Z,14.67
2018-04-24T11:31:56.104Z,10.67
2018-04-24T11:34:23.633Z,10.97
2018-04-24T11:36:53.136Z,10.83
2018-04-24T11:39:21.539Z,9.27
2018-04-24T11:41:49.257Z,10.53
2018-04-24T11:44:16.836Z,10.03
2018-04-24T11:46:44.376Z,10.17
2018-04-24T11:49:11.920Z,11.97
2018-04-24T11:51:41.206Z,11.70
2018-04-24T11:54:09.605Z,13.30
2018-04-24T11:56:38.727Z,11.53
2018-04-24T11:59:06.973Z,11.40
2018-04-24T12:01:37.506Z,12.97
2018-04-24T12:04:05.298Z,11.87
2018-04-24T12:06:33.101Z,10.80
2018-04-24T12:09:01.632Z,11.43
2018-04-24T12:11:30.882Z,13.47
2018-04-24T12:13:58.475Z,12.40
2018-04-24T12:16:26.836Z,14.13
2018-04-24T12:18:54.860Z,10.17
2018-04-24T12:21:22.468Z,11.50
2018-04-24T12:23:50.007Z,8.73
2018-04-24T12:26:17.527Z,11.37
2018-04-24T12:28:45.035Z,8.90
2018-04-24T12:31:12.586Z,9.53
2018-04-24T12:33:40.064Z,14.13
2018-04-24T12:36:08.321Z,10.53
2018-04-24T12:38:35.872Z,7.77
2018-04-24T12:41:03.492Z,9.07
2018-04-24T12:43:31.256Z,10.13
2018-04-24T12:45:59.048Z,7.40
2018-04-24T12:48:27.502Z,9.23
2018-04-24T12:50:55.364Z,7.40
2018-04-24T12:53:22.977Z,8.27
2018-04-24T12:55:50.523Z,9.90
2018-04-24T12:58:18.004Z,8.83
2018-04-24T13:00:46.420Z,9.83
2018-04-24T13:03:13.895Z,10.53
2018-04-24T13:05:42.970Z,12.03
2018-04-24T13:08:10.846Z,13.23
2018-04-24T13:10:38.702Z,14.30
2018-04-24T13:13:06.261Z,14.53
2018-04-24T13:15:33.965Z,7.80
2018-04-24T13:18:01.573Z,8.57
2018-04-24T13:20:29.245Z,12.53
2018-04-24T13:22:56.896Z,11.10
2018-04-24T13:25:24.593Z,8.17
2018-04-24T13:27:52.078Z,14.20
2018-04-24T13:30:19.607Z,12.50
2018-04-24T13:32:47.235Z,7.97
2018-04-24T13:35:14.815Z,12.30
2018-04-24T13:37:42.470Z,9.17
2018-04-24T13:40:09.995Z,11.50
2018-04-24T13:42:37.486Z,7.80
2018-04-24T13:45:05.233Z,11.90
2018-04-24T13:47:32.756Z,9.70
2018-04-24T13:50:01.015Z,12.43
2018-04-24T13:52:29.339Z,16.27
2018-04-24T13:54:56.843Z,10.60
2018-04-24T13:57:24.428Z,13.13
2018-04-24T13:59:52.928Z,12.97
2018-04-24T14:02:20.456Z,11.83
2018-04-24T14:04:48.763Z,9.60
2018-04-24T14:07:16.373Z,11.57
2018-04-24T14:09:43.974Z,9.53
2018-04-24T14:12:11.576Z,7.60
2018-04-24T14:14:39.057Z,8.53
2018-04-24T14:17:07.310Z,10.10
2018-04-24T14:19:38.511Z,10.90
2018-04-24T14:22:06.058Z,12.93
2018-04-24T14:24:33.617Z,12.43
2018-04-24T14:27:01.240Z,8.87
2018-04-24T14:29:29.388Z,10.63
2018-04-24T14:31:56.963Z,13.93
2018-04-24T14:34:24.449Z,12.80
2018-04-24T14:36:52.178Z,11.13
2018-04-24T14:39:19.841Z,10.70
2018-04-24T14:41:47.726Z,10.50
2018-04-24T14:44:15.285Z,11.13
2018-04-24T14:46:43.649Z,16.03
2018-04-24T14:49:11.151Z,9.87
2018-04-24T14:51:38.715Z,10.03
2018-04-24T14:54:06.482Z,10.93
2018-04-24T14:56:33.996Z,9.53
2018-04-24T14:59:02.293Z,8.27
2018-04-24T15:01:29.924Z,12.83
2018-04-24T15:03:57.911Z,9.20
2018-04-24T15:06:25.546Z,10.50
2018-04-24T15:08:53.113Z,11.60
2018-04-24T15:11:21.529Z,16.53
2018-04-24T15:13:49.496Z,11.10
2018-04-24T15:16:17.261Z,14.77
2018-04-24T15:18:45.539Z,14.33
2018-04-24T15:21:13.206Z,10.03
2018-04-24T15:23:40.769Z,11.80
2018-04-24T15:26:08.722Z,12.30
2018-04-24T15:28:36.591Z,11.80
2018-04-24T15:31:04.271Z,12.03
2018-04-24T15:33:31.949Z,16.00
2018-04-24T15:35:59.883Z,12.47
2018-04-24T15:38:27.595Z,11.13
2018-04-24T15:40:56.032Z,11.13
2018-04-24T15:43:23.593Z,9.57
2018-04-24T15:45:53.301Z,12.67
2018-04-24T15:48:20.866Z,11.00
2018-04-24T15:50:48.401Z,14.77
2018-04-24T15:53:16.156Z,9.40
2018-04-24T15:55:43.816Z,10.10
2018-04-24T15:58:11.422Z,12.30
2018-04-24T16:00:38.925Z,12.83
2018-04-24T16:03:06.493Z,13.63
2018-04-24T16:05:33.973Z,13.53
2018-04-24T16:08:01.470Z,11.63
2018-04-24T16:10:29.856Z,12.67
2018-04-24T16:12:58.228Z,12.13
2018-04-24T16:15:26.566Z,9.70
2018-04-24T16:17:54.191Z,12.93
2018-04-24T16:20:22.068Z,9.23
2018-04-24T16:22:50.004Z,14.73
2018-04-24T16:27:47.352Z,11.80
2018-04-24T16:30:15.851Z,12.83
2018-04-24T16:32:44.297Z,11.77
2018-04-24T16:35:12.207Z,10.67
2018-04-24T16:37:39.688Z,12.03
2018-04-24T16:40:07.165Z,12.73
2018-04-24T16:42:34.752Z,11.70
2018-04-24T16:45:02.360Z,11.87
2018-04-24T16:47:30.030Z,10.60
2018-04-24T16:49:57.727Z,11.53
2018-04-24T16:52:25.250Z,15.77
2018-04-24T16:54:52.786Z,11.40
2018-04-24T16:57:20.441Z,11.53
2018-04-24T16:59:48.170Z,12.13
2018-04-24T17:02:16.591Z,10.87
2018-04-24T17:04:44.241Z,13.17
2018-04-24T17:07:12.399Z,13.13
2018-04-24T17:09:40.664Z,15.20
2018-04-24T17:12:09.113Z,13.00
2018-04-24T17:14:36.789Z,12.83
2018-04-24T17:17:05.026Z,13.17
2018-04-24T17:19:32.533Z,13.43
2018-04-24T17:22:00.894Z,12.70
2018-04-24T17:24:29.446Z,14.07
2018-04-24T17:26:56.999Z,18.23
2018-04-24T17:29:24.762Z,12.47
2018-04-24T17:31:52.353Z,14.87
2018-04-24T17:34:23.645Z,12.60
2018-04-24T17:36:51.211Z,11.63
2018-04-24T17:39:18.764Z,13.83
2018-04-24T17:41:46.235Z,13.60
2018-04-24T17:44:13.878Z,13.97
2018-04-24T17:46:41.496Z,15.93
2018-04-24T17:49:09.112Z,13.50
2018-04-24T17:51:36.624Z,11.07
2018-04-24T17:54:04.912Z,12.73
2018-04-24T17:56:32.501Z,13.50
2018-04-24T17:59:00.090Z,10.53
2018-04-24T18:01:28.645Z,14.07
2018-04-24T18:03:56.133Z,16.67
2018-04-24T18:06:23.642Z,9.60
2018-04-24T18:08:51.201Z,12.80
2018-04-24T18:11:18.976Z,12.00
2018-04-24T18:13:47.169Z,12.03
2018-04-24T18:16:17.757Z,11.17
2018-04-24T18:18:45.263Z,12.07
2018-04-24T18:21:12.823Z,15.73
2018-04-24T18:23:40.445Z,13.87
2018-04-24T18:26:08.103Z,12.40
2018-04-24T18:28:35.793Z,12.63
2018-04-24T18:31:04.175Z,13.10
2018-04-24T18:33:31.997Z,12.23
2018-04-24T18:35:59.558Z,11.43
2018-04-24T18:38:27.163Z,12.40
2018-04-24T18:40:54.678Z,10.83
2018-04-24T18:43:22.177Z,12.37
2018-04-24T18:45:49.718Z,18.03
2018-04-24T18:48:17.447Z,14.47
2018-04-24T18:50:45.216Z,15.17
2018-04-24T18:53:12.934Z,12.40
2018-04-24T18:55:40.504Z,14.00
2018-04-24T18:58:08.905Z,14.70
2018-04-24T19:00:36.477Z,15.60
2018-04-24T19:03:04.854Z,15.10
2018-04-24T19:05:32.410Z,14.90
2018-04-24T19:07:59.937Z,15.03
2018-04-24T19:10:27.528Z,16.07
2018-04-24T19:12:55.107Z,17.50
2018-04-24T19:15:22.660Z,14.13
2018-04-24T19:17:50.199Z,15.67
2018-04-24T19:20:17.806Z,17.63
2018-04-24T19:22:45.350Z,20.93
2018-04-24T19:25:18.718Z,14.37
2018-04-24T19:27:46.232Z,10.97
2018-04-24T19:30:14.515Z,13.63
2018-04-24T19:32:42.314Z,15.27
2018-04-24T19:35:09.987Z,10.83
2018-04-24T19:37:37.492Z,12.90
2018-04-24T19:40:11.528Z,16.37
2018-04-24T19:42:39.022Z,16.07
2018-04-24T19:45:06.550Z,13.80
2018-04-24T19:47:34.134Z,14.77
2018-04-24T19:50:07.503Z,12.47
2018-04-24T19:52:34.975Z,10.63
2018-04-24T19:55:08.338Z,13.93
2018-04-24T19:57:35.836Z,13.30
2018-04-24T20:00:03.451Z,13.07
2018-04-24T20:02:31.726Z,15.30
2018-04-24T20:04:59.515Z,14.93
2018-04-24T20:07:27.151Z,13.63
2018-04-24T20:09:54.647Z,13.83
2018-04-24T20:12:22.161Z,15.60
2018-04-24T20:14:49.662Z,15.00
2018-04-24T20:17:20.353Z,19.73
2018-04-24T20:19:47.967Z,15.67
2018-04-24T20:22:15.492Z,12.70
2018-04-24T20:24:44.815Z,19.13
2018-04-24T20:27:12.349Z,15.10
2018-04-24T20:29:39.884Z,18.50
2018-04-24T20:32:07.407Z,16.20
2018-04-24T20:34:35.679Z,13.43
2018-04-24T20:37:03.164Z,15.10
2018-04-24T20:39:30.658Z,13.77
2018-04-24T20:41:58.362Z,13.03
2018-04-24T20:44:26.642Z,14.23
2018-04-24T20:46:54.891Z,17.30
2018-04-24T20:49:22.393Z,16.80
2018-04-24T20:51:49.973Z,17.53
2018-04-24T20:54:17.613Z,16.67
2018-04-24T20:56:45.133Z,14.77
2018-04-24T20:59:12.697Z,13.83
2018-04-24T21:01:41.126Z,16.03
2018-04-24T21:04:08.832Z,15.47
2018-04-24T21:06:37.103Z,14.53
2018-04-24T21:09:04.613Z,15.03
2018-04-24T21:11:32.125Z,22.10
2018-04-24T21:13:59.638Z,20.67
2018-04-24T21:16:27.363Z,15.80
2018-04-24T21:18:54.918Z,15.70
2018-04-24T21:21:22.437Z,19.20
2018-04-24T21:23:50.275Z,14.00
2018-04-24T21:26:17.815Z,15.00
2018-04-24T21:28:45.486Z,16.47
2018-04-24T21:31:13.043Z,15.00
2018-04-24T21:33:40.730Z,17.60
2018-04-24T21:36:09.008Z,16.13
2018-04-24T21:38:36.510Z,16.60
2018-04-24T21:41:04.045Z,18.83
2018-04-24T21:43:32.196Z,16.73
2018-04-24T21:46:00.375Z,14.13
2018-04-24T21:48:27.948Z,14.57
2018-04-24T21:50:56.226Z,17.00
2018-04-24T21:53:24.640Z,18.03
2018-04-24T21:55:52.147Z,19.63
2018-04-24T21:58:19.686Z,16.13
2018-04-24T22:00:47.388Z,17.93
2018-04-24T22:03:15.669Z,17.13
2018-04-24T22:05:43.262Z,14.80
2018-04-24T22:08:10.745Z,16.47
2018-04-24T22:10:38.298Z,19.43
2018-04-24T22:13:05.757Z,17.33
2018-04-24T22:15:34.603Z,17.90
2018-04-24T22:18:02.159Z,16.90
2018-04-24T22:20:29.737Z,16.87
2018-04-24T22:22:57.328Z,21.83
2018-04-24T22:25:24.826Z,14.73
2018-04-24T22:27:52.321Z,17.07
2018-04-24T22:30:19.845Z,15.30
2018-04-24T22:32:47.349Z,19.37
2018-04-24T22:35:14.836Z,19.23
2018-04-24T22:37:42.363Z,17.50
2018-04-24T22:40:09.877Z,18.33
2018-04-24T22:42:37.364Z,19.73
2018-04-24T22:45:04.863Z,16.07
2018-04-24T22:47:33.168Z,15.10
2018-04-24T22:50:00.747Z,16.63
2018-04-24T22:52:28.233Z,19.70
2018-04-24T22:54:55.722Z,17.47
2018-04-24T22:57:23.355Z,19.60
2018-04-24T22:59:51.675Z,19.93
2018-04-24T23:02:19.168Z,16.20
2018-04-24T23:04:46.667Z,18.27
2018-04-24T23:07:14.194Z,19.30
2018-04-24T23:09:53.258Z,16.03
2018-04-24T23:12:32.600Z,17.07
2018-04-24T23:15:12.064Z,15.50
2018-04-24T23:17:51.485Z,16.47
2018-04-24T23:20:18.475Z,14.27
2018-04-24T23:22:45.947Z,16.07
2018-04-24T23:25:14.261Z,15.73
2018-04-24T23:27:41.746Z,15.33
2018-04-24T23:30:09.351Z,13.90
2018-04-24T23:32:36.834Z,19.27
2018-04-24T23:35:04.342Z,15.43
2018-04-24T23:37:32.584Z,14.33
2018-04-24T23:40:00.518Z,14.10
2018-04-24T23:42:27.993Z,15.10
2018-04-24T23:44:55.476Z,12.40
2018-04-24T23:47:22.986Z,13.17
2018-04-24T23:49:50.449Z,10.73
2018-04-24T23:52:17.920Z,15.80
2018-04-24T23:54:45.420Z,12.37
2018-04-24T23:57:13.650Z,8.93
2018-04-24T23:59:41.119Z,10.13
